This is the latest recevied weather packets stored in our database for station/object 2E0RGX-13. If no packets are shown the sender has not sent any weather packets the latest 1 day(s).
| Time | Temp. | Humidity | Pressure | Rain* | Wind** | Luminosity | Snow |
|---|---|---|---|---|---|---|---|
| 1778093302 | 12.22° C | 62% | 1010.4 hPa | 0 mm | - | 0 W/m² | - |
| 1778092998 | 12.22° C | 62% | 1010.5 hPa | 0 mm | - | 0 W/m² | - |
| 1778092694 | 12.22° C | 62% | 1010.2 hPa | 0 mm | - | 0 W/m² | - |
| 1778092390 | 12.22° C | 62% | 1010.2 hPa | 0 mm | - | 0 W/m² | - |
| 1778087222 | 12.78° C | 56% | 1009.6 hPa | 0 mm | - | 0 W/m² | - |
| 1778086614 | 12.78° C | 56% | 1009.6 hPa | 0 mm | - | 0 W/m² | - |
| 1778086310 | 12.78° C | 56% | 1009.5 hPa | 0 mm | - | 0 W/m² | - |
| 1778082966 | 13.33° C | 56% | 1009.7 hPa | 0 mm | - | 1 W/m² | - |
| 1778082662 | 13.33° C | 56% | 1009.6 hPa | 0 mm | - | 1 W/m² | - |
| 1778082358 | 12.78° C | 56% | 1009.7 hPa | 0 mm | - | 1 W/m² | - |
| 1778082054 | 13.33° C | 56% | 1009.7 hPa | 0 mm | - | 1 W/m² | - |
| 1778079014 | 13.33° C | 60% | 1009.6 hPa | 0 mm | - | 2 W/m² | - |
| 1778077798 | 13.33° C | 61% | 1009.5 hPa | 0 mm | - | 2 W/m² | - |
| 1778077494 | 12.78° C | 62% | 1009.8 hPa | 0 mm | - | 2 W/m² | - |
| 1778077190 | 12.22° C | 63% | 1009.8 hPa | 0 mm | - | 2 W/m² | - |
| 1778076886 | 12.78° C | 63% | 1009.8 hPa | 0 mm | - | 1 W/m² | - |
| 1778076582 | 12.22° C | 64% | 1009.9 hPa | 0 mm | - | 1 W/m² | - |
| 1778076278 | 12.22° C | 66% | 1009.8 hPa | 0 mm | - | 1 W/m² | - |
| 1778075366 | 12.22° C | 67% | 1010 hPa | 0 mm | - | 1 W/m² | - |
| 1778075062 | 12.22° C | 68% | 1009.7 hPa | 0 mm | - | 1 W/m² | - |
| 1778074758 | 11.67° C | 66% | 1009.9 hPa | 0 mm | - | 1 W/m² | - |
| 1778071718 | 12.22° C | 63% | 1010 hPa | 0 mm | - | 2 W/m² | - |
| 1778071414 | 12.22° C | 64% | 1009.9 hPa | 0 mm | - | 2 W/m² | - |
| 1778068070 | 13.33° C | 60% | 1009.8 hPa | 0 mm | - | 3 W/m² | - |
| 1778067766 | 13.33° C | 60% | 1009.8 hPa | 0 mm | - | 4 W/m² | - |
* Rain latest hour (hover to see other rain measurements)
** Current wind speed in m/s (hover to see current wind gust speed)